createdAt,value
2023-02-03T00:01:15.244Z,1.80
2023-02-03T00:03:42.891Z,1.90
2023-02-03T00:06:10.646Z,1.95
2023-02-03T00:08:39.103Z,1.80
2023-02-03T00:11:06.708Z,1.83
2023-02-03T00:13:34.788Z,1.73
2023-02-03T00:16:02.418Z,1.42
2023-02-03T00:18:30.022Z,2.08
2023-02-03T00:20:57.596Z,2.00
2023-02-03T00:23:25.985Z,1.70
2023-02-03T00:25:54.252Z,1.40
2023-02-03T00:28:21.797Z,1.50
2023-02-03T00:30:49.629Z,1.63
2023-02-03T00:33:17.224Z,1.95
2023-02-03T00:35:44.769Z,1.60
2023-02-03T00:38:12.324Z,1.42
2023-02-03T00:40:39.947Z,1.65
2023-02-03T00:43:07.568Z,1.63
2023-02-03T00:45:35.178Z,1.77
2023-02-03T00:48:02.795Z,1.65
2023-02-03T00:50:30.372Z,1.50
2023-02-03T00:52:58.298Z,1.65
2023-02-03T00:55:26.939Z,1.60
2023-02-03T00:57:54.479Z,1.35
2023-02-03T01:00:22.159Z,1.85
2023-02-03T01:02:49.809Z,1.60
2023-02-03T01:05:17.400Z,1.30
2023-02-03T01:07:45.033Z,1.60
2023-02-03T01:10:14.678Z,1.77
2023-02-03T01:12:42.236Z,1.33
2023-02-03T01:15:10.983Z,1.58
2023-02-03T01:17:38.820Z,1.45
2023-02-03T01:20:06.620Z,1.70
2023-02-03T01:22:34.228Z,1.50
2023-02-03T01:25:01.807Z,1.33
2023-02-03T01:27:29.349Z,1.20
2023-02-03T01:29:57.233Z,1.50
2023-02-03T01:32:24.862Z,1.67
2023-02-03T01:34:52.428Z,1.33
2023-02-03T01:37:19.995Z,1.50
2023-02-03T01:39:48.388Z,1.40
2023-02-03T01:42:16.361Z,1.42
2023-02-03T01:44:49.289Z,1.45
2023-02-03T01:47:19.152Z,1.50
2023-02-03T01:49:50.321Z,1.40
2023-02-03T01:52:18.263Z,1.85
2023-02-03T01:54:47.582Z,1.35
2023-02-03T01:57:22.832Z,1.20
2023-02-03T01:59:53.073Z,1.20
2023-02-03T02:02:21.070Z,1.38
2023-02-03T02:04:51.712Z,1.30
2023-02-03T02:07:19.297Z,1.30
2023-02-03T02:09:47.712Z,1.27
2023-02-03T02:12:15.782Z,1.20
2023-02-03T02:14:43.987Z,1.30
2023-02-03T02:17:11.512Z,1.50
2023-02-03T02:19:58.274Z,1.30
2023-02-03T02:22:27.084Z,1.55
2023-02-03T02:24:58.233Z,1.60
2023-02-03T02:27:44.845Z,1.50
2023-02-03T02:30:25.080Z,1.50
2023-02-03T02:32:59.093Z,1.30
2023-02-03T02:35:33.599Z,1.55
2023-02-03T02:38:01.457Z,1.20
2023-02-03T02:40:37.410Z,1.10
2023-02-03T02:43:23.015Z,1.33
2023-02-03T02:45:50.699Z,1.00
2023-02-03T02:48:29.324Z,1.50
2023-02-03T02:50:58.296Z,1.40
2023-02-03T02:53:29.510Z,1.52
2023-02-03T02:55:58.079Z,1.00
2023-02-03T02:58:27.630Z,1.30
2023-02-03T03:00:55.647Z,1.33
2023-02-03T03:03:24.544Z,1.33
2023-02-03T03:05:57.551Z,1.63
2023-02-03T03:08:42.511Z,1.02
2023-02-03T03:13:45.612Z,0.88
2023-02-03T03:16:15.266Z,1.10
2023-02-03T03:18:44.819Z,1.10
2023-02-03T03:21:16.748Z,1.10
2023-02-03T03:23:47.562Z,0.90
2023-02-03T03:26:17.445Z,1.35
2023-02-03T03:28:49.610Z,1.38
2023-02-03T03:31:18.431Z,0.98
2023-02-03T03:33:46.912Z,1.10
2023-02-03T03:36:20.398Z,1.20
2023-02-03T03:38:55.799Z,1.40
2023-02-03T03:41:30.487Z,1.30
2023-02-03T03:43:59.916Z,1.30
2023-02-03T03:46:29.243Z,0.95
2023-02-03T03:48:59.370Z,1.05
2023-02-03T03:51:30.851Z,1.10
2023-02-03T03:54:01.703Z,1.08
2023-02-03T03:56:32.467Z,1.50
2023-02-03T03:59:00.705Z,1.05
2023-02-03T04:01:29.414Z,1.13
2023-02-03T04:03:59.228Z,1.00
2023-02-03T04:06:27.142Z,1.20
2023-02-03T04:08:54.919Z,1.10
2023-02-03T04:11:41.031Z,1.00
2023-02-03T04:14:08.678Z,1.10
2023-02-03T04:16:36.327Z,1.10
2023-02-03T04:19:03.912Z,1.10
2023-02-03T04:21:31.481Z,1.10
2023-02-03T04:23:59.043Z,0.90
2023-02-03T04:26:26.704Z,1.27
2023-02-03T04:28:54.251Z,0.95
2023-02-03T04:31:21.929Z,0.90
2023-02-03T04:33:49.620Z,1.10
2023-02-03T04:36:17.181Z,1.25
2023-02-03T04:38:44.712Z,1.00
2023-02-03T04:41:12.427Z,1.15
2023-02-03T04:43:39.997Z,0.90
2023-02-03T04:46:07.690Z,1.10
2023-02-03T04:48:35.353Z,1.08
2023-02-03T04:51:03.380Z,1.20
2023-02-03T04:53:31.152Z,1.02
2023-02-03T04:55:58.896Z,1.00
2023-02-03T04:58:26.927Z,1.30
2023-02-03T05:00:54.771Z,1.58
2023-02-03T05:03:24.939Z,1.13
2023-02-03T05:05:53.709Z,0.90
2023-02-03T05:08:21.626Z,0.95
2023-02-03T05:10:49.226Z,1.35
2023-02-03T05:13:16.853Z,1.45
2023-02-03T05:15:44.431Z,1.20
2023-02-03T05:18:11.980Z,1.27
2023-02-03T05:20:39.521Z,1.00
2023-02-03T05:23:07.106Z,1.27
2023-02-03T05:25:34.803Z,1.13
2023-02-03T05:28:02.418Z,1.33
2023-02-03T05:30:30.377Z,1.10
2023-02-03T05:32:58.311Z,1.10
2023-02-03T05:35:25.896Z,0.80
2023-02-03T05:37:53.460Z,1.00
2023-02-03T05:40:39.851Z,1.20
2023-02-03T05:43:08.080Z,1.25
2023-02-03T05:45:35.711Z,1.63
2023-02-03T05:48:03.600Z,0.95
2023-02-03T05:50:38.166Z,1.35
2023-02-03T05:53:09.288Z,1.40
2023-02-03T05:55:37.714Z,1.42
2023-02-03T05:58:05.801Z,1.15
2023-02-03T06:00:33.406Z,1.10
2023-02-03T06:03:04.973Z,1.35
2023-02-03T06:05:33.301Z,0.80
2023-02-03T06:08:02.307Z,1.23
2023-02-03T06:10:30.086Z,0.98
2023-02-03T06:12:58.025Z,0.98
2023-02-03T06:15:25.839Z,0.90
2023-02-03T06:17:53.410Z,1.10
2023-02-03T06:20:21.456Z,1.05
2023-02-03T06:22:50.037Z,1.10
2023-02-03T06:25:17.659Z,0.90
2023-02-03T06:27:45.231Z,1.50
2023-02-03T06:30:13.059Z,1.02
2023-02-03T06:32:40.710Z,1.80
2023-02-03T06:35:08.600Z,0.88
2023-02-03T06:37:36.323Z,0.80
2023-02-03T06:40:04.339Z,1.23
2023-02-03T06:42:32.073Z,1.05
2023-02-03T06:44:59.801Z,1.30
2023-02-03T06:47:27.376Z,1.15
2023-02-03T06:49:54.914Z,0.93
2023-02-03T06:52:22.493Z,1.20
2023-02-03T06:54:50.061Z,1.10
2023-02-03T06:57:17.983Z,1.17
2023-02-03T06:59:45.538Z,1.17
2023-02-03T07:02:13.155Z,1.13
2023-02-03T07:04:40.855Z,1.00
2023-02-03T07:07:08.432Z,0.88
2023-02-03T07:09:36.094Z,0.98
2023-02-03T07:12:03.881Z,1.30
2023-02-03T07:14:31.468Z,1.10
2023-02-03T07:16:59.143Z,0.80
2023-02-03T07:19:26.772Z,1.13
2023-02-03T07:21:54.434Z,1.10
2023-02-03T07:24:21.977Z,1.08
2023-02-03T07:26:49.623Z,1.00
2023-02-03T07:29:17.195Z,0.95
2023-02-03T07:31:44.938Z,0.70
2023-02-03T07:34:12.629Z,0.80
2023-02-03T07:36:41.444Z,0.90
2023-02-03T07:39:09.430Z,0.95
2023-02-03T07:41:37.333Z,0.98
2023-02-03T07:44:05.037Z,1.45
2023-02-03T07:46:32.686Z,0.90
2023-02-03T07:49:00.312Z,0.90
2023-02-03T07:51:28.004Z,0.70
2023-02-03T07:53:56.985Z,0.80
2023-02-03T07:56:24.619Z,0.70
2023-02-03T07:58:55.124Z,1.00
2023-02-03T08:01:23.291Z,0.82
2023-02-03T08:03:51.756Z,0.73
2023-02-03T08:06:20.099Z,0.80
2023-02-03T08:08:47.680Z,0.80
2023-02-03T08:11:15.248Z,0.93
2023-02-03T08:13:42.809Z,0.63
2023-02-03T08:16:10.375Z,0.50
2023-02-03T08:18:38.982Z,0.90
2023-02-03T08:21:06.896Z,0.85
2023-02-03T08:23:34.465Z,0.85
2023-02-03T08:26:04.953Z,0.82
2023-02-03T08:28:32.685Z,0.95
2023-02-03T08:31:00.327Z,0.73
2023-02-03T08:33:28.775Z,0.98
2023-02-03T08:35:56.939Z,0.90
2023-02-03T08:38:24.488Z,1.00
2023-02-03T08:40:52.093Z,0.80
2023-02-03T08:43:19.605Z,0.80
2023-02-03T08:45:47.212Z,1.10
2023-02-03T08:48:15.028Z,1.10
2023-02-03T08:50:44.422Z,0.93
2023-02-03T08:53:12.083Z,0.90
2023-02-03T08:55:40.155Z,1.02
2023-02-03T08:58:07.749Z,1.00
2023-02-03T09:00:35.287Z,0.90
2023-02-03T09:03:04.192Z,0.90
2023-02-03T09:05:32.503Z,0.70
2023-02-03T09:08:00.099Z,0.90
2023-02-03T09:10:28.191Z,0.70
2023-02-03T09:12:56.987Z,0.80
2023-02-03T09:15:25.291Z,0.93
2023-02-03T09:17:53.910Z,0.80
2023-02-03T09:20:24.421Z,1.10
2023-02-03T09:22:52.113Z,0.90
2023-02-03T09:25:21.105Z,0.95
2023-02-03T09:27:48.794Z,0.85
2023-02-03T09:30:16.541Z,0.88
2023-02-03T09:32:44.771Z,0.98
2023-02-03T09:35:12.475Z,0.70
2023-02-03T09:37:40.148Z,0.85
2023-02-03T09:40:07.979Z,0.95
2023-02-03T09:42:58.948Z,0.80
2023-02-03T09:45:30.640Z,0.88
2023-02-03T09:48:01.566Z,0.75
2023-02-03T09:50:31.066Z,0.40
2023-02-03T09:52:59.544Z,0.93
2023-02-03T09:55:39.875Z,0.70
2023-02-03T09:58:12.544Z,0.73
2023-02-03T10:00:43.193Z,1.02
2023-02-03T10:03:18.471Z,0.70
2023-02-03T10:06:05.026Z,0.80
2023-02-03T10:08:51.622Z,1.00
2023-02-03T10:11:31.309Z,0.70
2023-02-03T10:14:13.335Z,1.08
2023-02-03T10:16:55.313Z,1.10
2023-02-03T10:21:55.301Z,0.50
2023-02-03T10:24:27.138Z,0.68
2023-02-03T10:29:27.294Z,0.90
2023-02-03T10:31:58.605Z,0.95
2023-02-03T10:34:26.536Z,0.80
2023-02-03T10:36:55.296Z,0.60
2023-02-03T10:39:25.649Z,0.88
2023-02-03T10:41:54.038Z,1.00
2023-02-03T10:44:22.491Z,1.00
2023-02-03T10:46:50.119Z,1.00
2023-02-03T10:49:19.040Z,1.00
2023-02-03T10:51:51.736Z,0.90
2023-02-03T10:54:38.152Z,1.10
2023-02-03T10:57:07.547Z,0.95
2023-02-03T10:59:36.758Z,0.70
2023-02-03T11:02:08.306Z,0.90
2023-02-03T11:04:36.352Z,0.90
2023-02-03T11:07:08.143Z,0.93
2023-02-03T11:12:06.266Z,0.90
2023-02-03T11:14:37.651Z,0.90
2023-02-03T11:17:09.442Z,1.10
2023-02-03T11:22:04.654Z,1.10
2023-02-03T11:24:33.561Z,0.90
2023-02-03T11:27:04.585Z,0.70
2023-02-03T11:29:34.330Z,0.88
2023-02-03T11:32:17.229Z,0.90
2023-02-03T11:34:54.896Z,1.02
2023-02-03T11:37:45.354Z,0.80
2023-02-03T11:40:18.040Z,1.23
2023-02-03T11:42:46.929Z,0.60
2023-02-03T11:45:34.564Z,0.88
2023-02-03T11:48:07.168Z,0.80
2023-02-03T11:50:39.745Z,1.15
2023-02-03T11:53:26.175Z,0.80
2023-02-03T11:56:09.231Z,0.95
2023-02-03T11:58:36.856Z,0.77
2023-02-03T12:01:19.916Z,0.80
2023-02-03T12:04:13.252Z,0.90
2023-02-03T12:06:40.889Z,0.90
2023-02-03T12:09:29.392Z,0.70
2023-02-03T12:12:37.384Z,0.70
2023-02-03T12:15:22.074Z,0.52
2023-02-03T12:17:49.646Z,0.70
2023-02-03T12:20:32.342Z,0.63
2023-02-03T12:23:18.828Z,0.82
2023-02-03T12:25:51.571Z,0.60
2023-02-03T12:28:44.218Z,0.73
2023-02-03T12:31:16.251Z,0.40
2023-02-03T12:34:07.295Z,0.93
2023-02-03T12:36:39.405Z,0.65
2023-02-03T12:39:11.658Z,0.65
2023-02-03T12:41:42.796Z,0.65
2023-02-03T12:44:17.385Z,0.50
2023-02-03T12:46:52.020Z,0.57
2023-02-03T12:49:42.666Z,0.70
2023-02-03T12:52:16.942Z,0.38
2023-02-03T12:54:48.113Z,0.88
2023-02-03T12:58:00.326Z,0.50
2023-02-03T13:03:24.258Z,0.60
2023-02-03T13:06:14.855Z,0.73
2023-02-03T13:09:02.670Z,0.70
2023-02-03T13:11:33.562Z,0.73
2023-02-03T13:14:21.699Z,0.57
2023-02-03T13:16:54.350Z,0.80
2023-02-03T13:19:23.605Z,0.82
2023-02-03T13:21:52.786Z,0.90
2023-02-03T13:24:21.774Z,0.90
2023-02-03T13:27:11.074Z,0.70
2023-02-03T13:29:41.716Z,0.90
2023-02-03T13:32:21.459Z,0.82
2023-02-03T13:35:08.068Z,0.82
2023-02-03T13:37:49.717Z,0.80
2023-02-03T13:40:36.041Z,0.70
2023-02-03T13:43:06.127Z,0.90
2023-02-03T13:45:44.170Z,0.70
2023-02-03T13:48:23.446Z,1.10
2023-02-03T13:50:52.332Z,1.23
2023-02-03T13:53:24.306Z,0.75
2023-02-03T13:55:59.102Z,0.60
2023-02-03T13:58:34.696Z,0.90
2023-02-03T14:01:04.597Z,0.90
2023-02-03T14:03:32.420Z,0.70
2023-02-03T14:06:01.583Z,0.70
2023-02-03T14:08:29.195Z,0.80
2023-02-03T14:11:15.618Z,1.13
2023-02-03T14:13:43.258Z,0.65
2023-02-03T14:16:24.631Z,1.00
2023-02-03T14:18:54.152Z,0.80
2023-02-03T14:21:23.147Z,0.80
2023-02-03T14:23:56.965Z,1.15
2023-02-03T14:26:33.178Z,0.75
2023-02-03T14:29:01.258Z,0.60
2023-02-03T14:31:28.980Z,0.98
2023-02-03T14:34:13.026Z,0.80
2023-02-03T14:36:45.343Z,1.05
2023-02-03T14:39:19.949Z,0.55
2023-02-03T14:42:03.942Z,0.60
2023-02-03T14:44:34.477Z,0.60
2023-02-03T14:47:02.071Z,0.77
2023-02-03T14:49:32.625Z,1.10
2023-02-03T14:52:21.920Z,0.70
2023-02-03T14:54:55.516Z,0.65
2023-02-03T14:57:28.536Z,0.60
2023-02-03T15:00:02.040Z,0.70
2023-02-03T15:02:31.160Z,0.68
2023-02-03T15:05:14.065Z,0.80
2023-02-03T15:07:48.477Z,0.65
2023-02-03T15:10:20.433Z,0.70
2023-02-03T15:12:54.901Z,0.88
2023-02-03T15:15:32.797Z,0.65
2023-02-03T15:18:01.513Z,0.85
2023-02-03T15:20:38.696Z,1.05
2023-02-03T15:23:19.429Z,1.08
2023-02-03T15:25:47.090Z,0.85
2023-02-03T15:28:19.902Z,1.48
2023-02-03T15:30:48.135Z,0.80
2023-02-03T15:33:17.680Z,0.88
2023-02-03T15:35:46.598Z,1.13
2023-02-03T15:38:16.200Z,0.70
2023-02-03T15:40:45.868Z,0.63
2023-02-03T15:43:24.402Z,0.73
2023-02-03T15:45:55.011Z,0.90
2023-02-03T15:48:42.784Z,1.17
2023-02-03T15:51:13.256Z,0.77
2023-02-03T15:53:47.932Z,0.85
2023-02-03T15:56:22.542Z,0.70
2023-02-03T15:58:50.545Z,1.02
2023-02-03T16:01:20.944Z,0.90
2023-02-03T16:03:52.568Z,0.80
2023-02-03T16:06:30.312Z,0.63
2023-02-03T16:08:59.602Z,1.27
2023-02-03T16:11:32.225Z,1.05
2023-02-03T16:14:21.170Z,0.80
2023-02-03T16:17:04.462Z,0.70
2023-02-03T16:19:37.956Z,0.93
2023-02-03T16:22:05.664Z,0.95
2023-02-03T16:24:33.260Z,0.93
2023-02-03T16:27:19.625Z,0.80
2023-02-03T16:30:05.949Z,0.70
2023-02-03T16:32:52.453Z,0.70
2023-02-03T16:35:38.860Z,1.00
2023-02-03T16:38:33.976Z,1.25
2023-02-03T16:41:20.748Z,1.10
2023-02-03T16:44:06.871Z,0.70
2023-02-03T16:46:53.245Z,1.10
2023-02-03T16:49:39.468Z,1.00
2023-02-03T16:52:08.543Z,0.95
2023-02-03T16:54:36.161Z,1.00
2023-02-03T16:57:03.821Z,0.73
2023-02-03T16:59:31.384Z,1.00
2023-02-03T17:01:59.011Z,0.65
2023-02-03T17:04:26.647Z,0.93
2023-02-03T17:06:54.204Z,0.90
2023-02-03T17:09:24.798Z,0.90
2023-02-03T17:11:52.563Z,0.95
2023-02-03T17:14:20.181Z,0.70
2023-02-03T17:16:47.938Z,0.88
2023-02-03T17:19:15.520Z,0.90
2023-02-03T17:21:43.186Z,0.82
2023-02-03T17:24:12.184Z,0.90
2023-02-03T17:26:39.803Z,0.90
2023-02-03T17:29:07.348Z,0.73
2023-02-03T17:31:35.833Z,0.60
2023-02-03T17:34:03.825Z,0.60
2023-02-03T17:36:31.490Z,0.90
2023-02-03T17:55:33.904Z,1.30
2023-02-03T17:58:01.666Z,1.20
2023-02-03T18:00:29.603Z,0.95
2023-02-03T18:02:57.795Z,0.90
2023-02-03T18:05:25.594Z,0.68
2023-02-03T18:07:53.259Z,0.80
2023-02-03T18:10:20.891Z,0.80
2023-02-03T18:12:48.566Z,0.70
2023-02-03T18:15:16.560Z,0.82
2023-02-03T18:17:44.325Z,1.00
2023-02-03T18:20:12.327Z,0.90
2023-02-03T18:22:40.274Z,0.70
2023-02-03T18:25:09.587Z,0.65
2023-02-03T18:27:37.184Z,1.15
2023-02-03T18:30:05.026Z,0.82
2023-02-03T18:32:32.692Z,0.75
2023-02-03T18:35:01.006Z,0.95
2023-02-03T18:37:28.718Z,0.93
2023-02-03T18:39:56.488Z,0.80
2023-02-03T18:42:24.560Z,0.70
2023-02-03T18:44:52.232Z,0.93
2023-02-03T18:47:19.781Z,0.80
2023-02-03T18:49:47.872Z,0.80
2023-02-03T18:52:15.560Z,0.50
2023-02-03T18:54:43.169Z,0.80
2023-02-03T18:57:13.835Z,0.90
2023-02-03T18:59:41.549Z,0.80
2023-02-03T19:02:10.991Z,0.80
2023-02-03T19:04:38.644Z,0.85
2023-02-03T19:07:06.232Z,0.73
2023-02-03T19:09:34.022Z,1.10
2023-02-03T19:12:02.986Z,1.08
2023-02-03T19:14:30.879Z,1.13
2023-02-03T19:16:58.710Z,1.00
2023-02-03T19:19:26.427Z,1.23
2023-02-03T19:21:54.068Z,1.05
2023-02-03T19:24:21.858Z,1.10
2023-02-03T19:26:49.460Z,1.00
2023-02-03T19:29:17.193Z,1.00
2023-02-03T19:31:45.070Z,1.08
2023-02-03T19:34:16.610Z,1.00
2023-02-03T19:36:45.985Z,0.90
2023-02-03T19:39:13.992Z,1.20
2023-02-03T19:41:41.747Z,1.30
2023-02-03T19:44:09.388Z,0.98
2023-02-03T19:46:37.870Z,1.15
2023-02-03T19:49:11.836Z,1.30
2023-02-03T19:51:40.205Z,1.20
2023-02-03T19:54:08.055Z,1.17
2023-02-03T19:56:35.638Z,0.93
2023-02-03T19:59:04.315Z,1.35
2023-02-03T20:01:32.163Z,1.27
2023-02-03T20:03:59.956Z,1.33
2023-02-03T20:06:28.371Z,1.13
2023-02-03T20:09:03.497Z,1.20
2023-02-03T20:11:31.047Z,1.15
2023-02-03T20:13:58.758Z,1.40
2023-02-03T20:16:26.397Z,0.80
2023-02-03T20:18:54.011Z,1.20
2023-02-03T20:21:21.764Z,1.40
2023-02-03T20:23:49.286Z,1.25
2023-02-03T20:26:16.904Z,1.02
2023-02-03T20:28:45.848Z,1.20
2023-02-03T20:31:13.760Z,1.40
2023-02-03T20:33:41.353Z,1.35
2023-02-03T20:36:11.293Z,0.95
2023-02-03T20:38:39.049Z,1.13
2023-02-03T20:41:09.826Z,1.20
2023-02-03T20:43:38.047Z,1.13
2023-02-03T20:46:13.085Z,1.40
2023-02-03T20:48:40.953Z,1.10
2023-02-03T20:51:15.821Z,0.93
2023-02-03T20:53:47.894Z,1.17
2023-02-03T20:56:16.690Z,1.20
2023-02-03T20:58:44.697Z,1.20
2023-02-03T21:01:19.674Z,1.00
2023-02-03T21:04:06.207Z,1.20
2023-02-03T21:06:34.890Z,1.00
2023-02-03T21:09:13.765Z,1.13
2023-02-03T21:11:41.860Z,1.05
2023-02-03T21:14:28.184Z,1.30
2023-02-03T21:16:55.750Z,0.95
2023-02-03T21:19:33.403Z,1.08
2023-02-03T21:22:08.355Z,1.30
2023-02-03T21:24:37.767Z,1.45
2023-02-03T21:27:18.872Z,1.40
2023-02-03T21:29:46.646Z,1.00
2023-02-03T21:32:14.864Z,1.10
2023-02-03T21:34:43.306Z,1.08
2023-02-03T21:37:29.604Z,1.27
2023-02-03T21:39:57.139Z,1.10
2023-02-03T21:42:41.924Z,1.20
2023-02-03T21:45:21.473Z,1.10
2023-02-03T21:47:49.984Z,1.00
2023-02-03T21:50:26.613Z,0.82
2023-02-03T21:52:54.224Z,0.70
2023-02-03T21:55:21.886Z,1.08
2023-02-03T21:57:50.496Z,0.93
2023-02-03T22:00:37.207Z,1.10
2023-02-03T22:03:08.273Z,1.35
2023-02-03T22:05:35.942Z,0.88
2023-02-03T22:08:07.261Z,1.00
2023-02-03T22:10:35.377Z,1.00
2023-02-03T22:13:02.981Z,0.88
2023-02-03T22:15:30.510Z,0.95
2023-02-03T22:17:58.165Z,0.90
2023-02-03T22:20:25.744Z,0.85
2023-02-03T22:22:54.253Z,0.80
2023-02-03T22:25:21.872Z,0.90
2023-02-03T22:27:50.424Z,1.15
2023-02-03T22:30:19.435Z,0.80
2023-02-03T22:32:47.151Z,1.05
2023-02-03T22:35:14.710Z,1.00
2023-02-03T22:37:42.408Z,0.80
2023-02-03T22:40:10.383Z,1.00
2023-02-03T22:42:37.977Z,1.20
2023-02-03T22:45:06.349Z,1.17
2023-02-03T22:47:34.009Z,1.00
2023-02-03T22:50:01.598Z,1.10
2023-02-03T22:52:29.274Z,1.10
2023-02-03T22:54:56.888Z,0.90
2023-02-03T22:57:24.588Z,1.08
2023-02-03T22:59:52.379Z,1.20
2023-02-03T23:02:20.003Z,1.15
2023-02-03T23:04:47.658Z,1.00
2023-02-03T23:07:16.613Z,1.10
2023-02-03T23:09:44.200Z,1.10
2023-02-03T23:12:11.893Z,1.42
2023-02-03T23:14:39.515Z,1.20
2023-02-03T23:17:07.083Z,1.60
2023-02-03T23:19:34.618Z,1.60
2023-02-03T23:22:02.358Z,1.42
2023-02-03T23:24:29.916Z,1.50
2023-02-03T23:26:57.538Z,2.05
2023-02-03T23:29:25.068Z,1.48
2023-02-03T23:31:52.799Z,1.60
2023-02-03T23:34:39.272Z,1.30
2023-02-03T23:37:06.874Z,1.50
2023-02-03T23:39:34.497Z,1.52
2023-02-03T23:42:02.084Z,0.98
2023-02-03T23:44:29.827Z,1.60
2023-02-03T23:46:57.424Z,1.50
2023-02-03T23:49:25.119Z,1.65
2023-02-03T23:51:52.670Z,1.80
2023-02-03T23:54:20.218Z,1.70
2023-02-03T23:56:47.926Z,1.63
2023-02-03T23:59:15.487Z,1.83
